Winchester, KS (66097)

5:19 PM CDT on August 29, 2015 (GMT -0500)
Jefferson County | | Change Station
CLOSE
Current Station
Personal Weather Station
Location: McLouth, KS
Elevation: 1138 ft
Nearby Weather Stations

Elev 1138 ft 39.19 °N, 95.24 °W | Updated 19 minutes ago

Overcast
Overcast
73.9 °F
Feels Like 74 °F
N
3.0
Wind Variable Wind from NNE
Gusts 4.0 mph

Today
High -- | Low -- °F
--% Chance of Precip.
Yesterday
High -- | Low -- °F
Precip. -- in
6:46 AM 7:56 PM
Full, 100% visible
Pressure 29.99 in
Visibility 10.0 miles
Clouds Overcast 3800 ft
Heat Index 74 °F
Dew Point 68 °F
Humidity 81%
Rainfall 0.00 in
Snow Depth Not available.
UV 1 out of 12
Pollen 8.40 out of 12
Air Quality Not available.
Flu Activity Not available.
METAR KLWC 292152Z AUTO 33004KT 10SM OVC038 24/19 A3001 RMK AO2 SLP155 T02440194
Pressure 29.99 in
Visibility 10.0 miles
Clouds Overcast 3800 ft
Heat Index 74 °F
Dew Point 68 °F
Humidity 81%
Rainfall 0.00 in
Snow Depth Not available.
UV 1 out of 12
Pollen 8.40 out of 12
Air Quality Not available.
Flu Activity Not available.
METAR KLWC 292152Z AUTO 33004KT 10SM OVC038 24/19 A3001 RMK AO2 SLP155 T02440194

10-Day Weather Forecast

×

Almanac

Astronomy

Aug. 29, 2015 Rise Set
Actual Time
Civil Twilight
Nautical Twilight
Astronomical Twilight
Moon
Length of Visible Light
Length of Day
Tomorrow will be .
, % of the Moon is Illuminated

Today's Extremes

State Highs State Lows

Community

WunderPhotos

Upload Photos

1,850,786 photos uploaded!

WunderBlogs® & News

Nearby

Air Quality

  Air Quality AQ Index Pollutant
Not available.

Snow Depth

Station Depth Elevation

Earthquake Activity

City Distance Mag. Time & Date
Minimum magnitude displayed is 2.5.

Coastal Water Temperatures

Place Temperature

Stations

Nearby Weather Stations

Station Location Temp. Windchill Dew Point Humidity Wind Precip. Elev Updated Type